createdAt,value
2022-11-30T00:03:13.376Z,65297.50
2022-11-30T00:08:20.045Z,65284.09
2022-11-30T00:13:26.156Z,65382.03
2022-11-30T00:18:30.283Z,65303.25
2022-11-30T00:23:35.416Z,65231.53
2022-11-30T00:28:42.103Z,65190.38
2022-11-30T00:33:46.324Z,65280.59
2022-11-30T00:38:54.403Z,65206.97
2022-11-30T00:44:00.076Z,65290.47
2022-11-30T00:49:04.061Z,65261.75
2022-11-30T00:54:08.528Z,65305.91
2022-11-30T00:59:14.320Z,65365.63
2022-11-30T01:04:18.241Z,65379.47
2022-11-30T01:09:22.315Z,65187.06
2022-11-30T01:14:28.072Z,65175.59
2022-11-30T01:19:31.795Z,65240.56
2022-11-30T01:24:35.841Z,65304.31
2022-11-30T01:29:43.336Z,65327.94
2022-11-30T01:34:47.561Z,65248.53
2022-11-30T01:39:51.947Z,65253.88
2022-11-30T01:44:58.452Z,65260.38
2022-11-30T01:50:07.575Z,65245.56
2022-11-30T01:55:19.244Z,65173.88
2022-11-30T02:00:25.400Z,65127.97
2022-11-30T02:05:30.199Z,65108.84
2022-11-30T02:10:38.425Z,65190.03
2022-11-30T02:15:52.454Z,65263.22
2022-11-30T02:21:14.603Z,65221.97
2022-11-30T02:26:35.309Z,65277.28
2022-11-30T02:31:52.303Z,65265.56
2022-11-30T02:36:57.701Z,65338.38
2022-11-30T02:42:02.162Z,65302.81
2022-11-30T02:47:19.481Z,65212.38
2022-11-30T02:52:27.421Z,65306.00
2022-11-30T02:57:31.670Z,65332.63
2022-11-30T03:02:37.914Z,65235.69
2022-11-30T03:07:42.315Z,65150.28
2022-11-30T03:12:46.355Z,65154.97
2022-11-30T03:17:51.927Z,65117.34
2022-11-30T03:22:55.959Z,65226.75
2022-11-30T03:28:01.791Z,65092.78
2022-11-30T03:33:07.162Z,65166.03
2022-11-30T03:38:11.340Z,65098.66
2022-11-30T03:43:15.375Z,65156.56
2022-11-30T03:48:20.968Z,65122.00
2022-11-30T03:53:26.468Z,65181.44
2022-11-30T03:58:31.270Z,65193.25
2022-11-30T04:03:37.306Z,65333.69
2022-11-30T04:08:43.531Z,65303.25
2022-11-30T04:13:47.601Z,65320.38
2022-11-30T04:18:52.999Z,65344.75
2022-11-30T04:23:56.996Z,65383.09
2022-11-30T04:29:04.266Z,65344.75
2022-11-30T04:34:11.049Z,65319.22
2022-11-30T04:39:19.120Z,65347.00
2022-11-30T04:44:23.678Z,65384.16
2022-11-30T04:49:29.811Z,65361.81
2022-11-30T04:54:34.460Z,65343.06
2022-11-30T04:59:39.107Z,65349.03
2022-11-30T05:04:49.401Z,65380.97
2022-11-30T05:09:54.019Z,65321.00
2022-11-30T05:14:58.184Z,65392.34
2022-11-30T05:20:07.086Z,65304.31
2022-11-30T05:25:12.383Z,65365.63
2022-11-30T05:30:16.876Z,65408.78
2022-11-30T05:35:22.459Z,65405.03
2022-11-30T05:40:28.258Z,65425.00
2022-11-30T05:45:32.652Z,65382.56
2022-11-30T05:50:38.069Z,65339.44
2022-11-30T05:55:42.083Z,65365.63
2022-11-30T06:00:46.501Z,65432.75
2022-11-30T06:05:52.937Z,65328.38
2022-11-30T06:11:02.030Z,65394.38
2022-11-30T06:16:09.514Z,65449.78
2022-11-30T06:21:19.594Z,65398.66
2022-11-30T06:26:26.927Z,65425.72
2022-11-30T06:31:32.287Z,65342.63
2022-11-30T06:36:40.287Z,65367.75
2022-11-30T06:41:44.419Z,65342.84
2022-11-30T06:46:48.501Z,65167.72
2022-11-30T06:51:54.773Z,65320.91
2022-11-30T06:56:59.115Z,65236.41
2022-11-30T07:02:08.803Z,65194.22
2022-11-30T07:07:17.232Z,65167.72
2022-11-30T07:12:21.870Z,65133.28
2022-11-30T07:17:25.954Z,65195.91
2022-11-30T07:22:34.470Z,65316.66
2022-11-30T07:27:38.640Z,65289.94
2022-11-30T07:32:42.644Z,65263.44
2022-11-30T07:37:48.284Z,65269.28
2022-11-30T07:42:56.370Z,65221.31
2022-11-30T07:48:01.702Z,65204.84
2022-11-30T07:53:07.275Z,65172.06
2022-11-30T07:58:17.141Z,65263.97
2022-11-30T08:03:21.716Z,65226.00
2022-11-30T08:08:30.479Z,65183.66
2022-11-30T08:13:34.786Z,65200.56
2022-11-30T08:18:38.840Z,65202.28
2022-11-30T08:23:46.039Z,65242.59
2022-11-30T08:28:52.610Z,65202.59
2022-11-30T08:33:57.763Z,65179.22
2022-11-30T08:39:05.448Z,65138.19
2022-11-30T08:44:09.687Z,65233.13
2022-11-30T08:49:23.099Z,65319.22
2022-11-30T08:54:30.047Z,65360.31
2022-11-30T08:59:34.392Z,65360.31
2022-11-30T09:04:39.089Z,65351.16
2022-11-30T09:09:45.194Z,65385.88
2022-11-30T09:14:57.405Z,65448.63
2022-11-30T09:20:02.830Z,65412.59
2022-11-30T09:25:14.899Z,65344.31
2022-11-30T09:30:19.376Z,65419.88
2022-11-30T09:35:24.194Z,65502.13
2022-11-30T09:40:34.187Z,65398.97
2022-11-30T09:45:42.688Z,65510.97
2022-11-30T09:50:48.804Z,65421.47
2022-11-30T09:55:55.789Z,65466.94
2022-11-30T10:01:07.260Z,65438.59
2022-11-30T10:06:19.578Z,65404.50
2022-11-30T10:11:42.514Z,65464.06
2022-11-30T10:16:56.803Z,65416.56
2022-11-30T10:22:10.392Z,65371.28
2022-11-30T10:27:21.810Z,65419.97
2022-11-30T10:32:34.560Z,65428.91
2022-11-30T10:37:43.114Z,65353.72
2022-11-30T10:42:53.556Z,65416.78
2022-11-30T10:48:03.573Z,65379.91
2022-11-30T10:53:08.025Z,65395.88
2022-11-30T10:58:21.074Z,65450.22
2022-11-30T11:03:27.133Z,65443.94
2022-11-30T11:08:31.353Z,65407.59
2022-11-30T11:13:42.257Z,65345.81
2022-11-30T11:18:55.079Z,65342.19
2022-11-30T11:23:59.961Z,65404.41
2022-11-30T11:29:05.641Z,65353.28
2022-11-30T11:34:26.919Z,65429.53
2022-11-30T11:39:30.890Z,65470.03
2022-11-30T11:44:36.294Z,65479.63
2022-11-30T11:49:40.483Z,65471.53
2022-11-30T11:54:51.170Z,65460.53
2022-11-30T12:00:02.826Z,65516.84
2022-11-30T12:05:14.839Z,65513.66
2022-11-30T12:10:51.931Z,65587.78
2022-11-30T12:16:11.362Z,65591.50
2022-11-30T12:21:17.138Z,65552.56
2022-11-30T12:26:30.930Z,65500.00
2022-11-30T12:31:45.575Z,65512.34
2022-11-30T12:36:59.858Z,65514.91
2022-11-30T12:42:09.073Z,65639.09
2022-11-30T12:47:31.141Z,65449.78
2022-11-30T12:52:44.718Z,65460.53
2022-11-30T12:58:01.142Z,65456.28
2022-11-30T13:03:31.876Z,65444.34
2022-11-30T13:08:43.858Z,65481.13
2022-11-30T13:13:52.138Z,65452.88
2022-11-30T13:19:03.067Z,65420.81
2022-11-30T13:24:15.452Z,65526.53
2022-11-30T13:29:52.379Z,65506.19
2022-11-30T13:35:36.367Z,65521.09
2022-11-30T13:40:40.486Z,65495.00
2022-11-30T13:45:44.664Z,65509.06
2022-11-30T13:50:51.256Z,65425.72
2022-11-30T13:56:07.763Z,65470.28
2022-11-30T14:01:27.633Z,65425.09
2022-11-30T14:06:50.125Z,65484.88
2022-11-30T14:11:53.998Z,65505.66
2022-11-30T14:16:59.663Z,65435.31
2022-11-30T14:22:06.232Z,65478.38
2022-11-30T14:27:17.585Z,65472.69
2022-11-30T14:32:31.339Z,65490.94
2022-11-30T14:37:42.491Z,65521.22
2022-11-30T14:42:51.933Z,65525.03
2022-11-30T14:48:06.755Z,65465.78
2022-11-30T14:53:24.710Z,65532.28
2022-11-30T14:58:36.851Z,65561.75
2022-11-30T15:03:40.992Z,65509.50
2022-11-30T15:08:50.085Z,65374.56
2022-11-30T15:13:58.301Z,65357.97
2022-11-30T15:19:21.424Z,65395.56
2022-11-30T15:24:28.371Z,65384.78
2022-11-30T15:29:36.813Z,65453.63
2022-11-30T15:34:53.611Z,65535.59
2022-11-30T15:40:04.080Z,65536.66
2022-11-30T15:45:18.496Z,65552.47
2022-11-30T15:50:40.490Z,65523.88
2022-11-30T15:55:48.034Z,65525.38
2022-11-30T16:01:09.345Z,65497.56
2022-11-30T16:06:20.450Z,65504.06
2022-11-30T16:11:26.018Z,65481.84
2022-11-30T16:16:32.802Z,65466.31
2022-11-30T16:21:37.159Z,65400.16
2022-11-30T16:26:52.703Z,65387.47
2022-11-30T16:31:56.888Z,65426.16
2022-11-30T16:37:01.054Z,65445.31
2022-11-30T16:42:07.153Z,65456.81
2022-11-30T16:47:11.176Z,65457.69
2022-11-30T16:52:18.191Z,65426.78
2022-11-30T16:57:23.979Z,65449.59
2022-11-30T17:02:28.348Z,65563.22
2022-11-30T17:07:33.910Z,65520.34
2022-11-30T17:12:40.459Z,65558.72
2022-11-30T17:17:44.877Z,65408.66
2022-11-30T17:22:49.016Z,65445.44
2022-11-30T17:27:54.594Z,65539.88
2022-11-30T17:32:58.504Z,65513.13
2022-11-30T17:38:02.782Z,65564.50
2022-11-30T17:43:08.473Z,65608.66
2022-11-30T17:48:12.642Z,65501.38
2022-11-30T17:53:18.276Z,65569.72
2022-11-30T17:58:23.615Z,65541.47
2022-11-30T18:03:27.572Z,65512.91
2022-11-30T18:08:34.379Z,65515.97
2022-11-30T18:13:39.941Z,65479.53
2022-11-30T18:18:48.183Z,65544.13
2022-11-30T18:23:53.216Z,65538.91
2022-11-30T18:29:00.677Z,65512.16
2022-11-30T18:34:07.112Z,65544.66
2022-11-30T18:39:11.185Z,65488.16
2022-11-30T18:44:16.832Z,65489.66
2022-11-30T18:49:22.693Z,65547.44
2022-11-30T18:54:26.676Z,65529.72
2022-11-30T18:59:31.914Z,65528.13
2022-11-30T19:04:36.147Z,65501.59
2022-11-30T19:09:40.179Z,65627.88
2022-11-30T19:14:45.911Z,65602.59
2022-11-30T19:19:50.302Z,65525.03
2022-11-30T19:24:54.404Z,65523.97
2022-11-30T19:30:01.043Z,65485.41
2022-11-30T19:35:05.945Z,65531.75
2022-11-30T19:40:10.689Z,65492.88
2022-11-30T19:45:16.176Z,65419.44
2022-11-30T19:50:20.383Z,65365.22
2022-11-30T19:55:24.521Z,65396.53
2022-11-30T20:00:29.944Z,65412.94
2022-11-30T20:05:34.059Z,65458.41
2022-11-30T20:10:41.238Z,65436.38
2022-11-30T20:15:46.601Z,65428.47
2022-11-30T20:20:50.566Z,65463.44
2022-11-30T20:25:54.628Z,65385.13
2022-11-30T20:31:03.503Z,65495.00
2022-11-30T20:36:10.411Z,65436.56
2022-11-30T20:41:16.771Z,65434.97
2022-11-30T20:46:24.251Z,65408.25
2022-11-30T20:51:31.763Z,65383.09
2022-11-30T20:56:37.523Z,65354.56
2022-11-30T21:01:44.396Z,65350.09
2022-11-30T21:06:48.775Z,65439.56
2022-11-30T21:11:52.735Z,65359.25
2022-11-30T21:16:58.016Z,65372.34
2022-11-30T21:22:01.757Z,65398.66
2022-11-30T21:27:05.697Z,65442.31
2022-11-30T21:32:11.121Z,65405.56
2022-11-30T21:37:15.085Z,65393.22
2022-11-30T21:42:19.113Z,65426.34
2022-11-30T21:47:24.353Z,65422.97
2022-11-30T21:52:28.310Z,65384.69
2022-11-30T21:57:32.391Z,65388.00
2022-11-30T22:02:38.936Z,65414.44
2022-11-30T22:07:43.049Z,65373.94
2022-11-30T22:12:46.871Z,65350.09
2022-11-30T22:17:52.716Z,65479.44
2022-11-30T22:22:56.773Z,65388.44
2022-11-30T22:28:00.570Z,65418.78
2022-11-30T22:33:05.853Z,65372.75
2022-11-30T22:38:09.728Z,65362.97
2022-11-30T22:43:13.975Z,65368.94
2022-11-30T22:48:19.110Z,65371.81
2022-11-30T22:53:22.905Z,65400.69
2022-11-30T22:58:26.775Z,65396.94
2022-11-30T23:03:32.047Z,65374.03
2022-11-30T23:08:36.655Z,65435.75
2022-11-30T23:13:41.475Z,65419.00
2022-11-30T23:18:48.915Z,65414.22
2022-11-30T23:23:53.020Z,65369.78
2022-11-30T23:28:59.735Z,65441.69
2022-11-30T23:34:08.150Z,65381.59
2022-11-30T23:39:14.004Z,65358.63
2022-11-30T23:44:17.971Z,65332.00
2022-11-30T23:49:23.265Z,65437.09
2022-11-30T23:54:27.113Z,65374.56
2022-11-30T23:59:30.847Z,65343.06
